createdAt,value
2022-11-04T00:04:11.930Z,10.33
2022-11-04T00:09:41.085Z,10.93
2022-11-04T00:15:18.793Z,5.25
2022-11-04T00:21:01.184Z,8.57
2022-11-04T00:26:48.050Z,7.78
2022-11-04T00:32:34.446Z,13.10
2022-11-04T00:38:05.307Z,29.33
2022-11-04T00:43:31.296Z,10.35
2022-11-04T00:48:58.148Z,12.70
2022-11-04T00:54:29.989Z,14.43
2022-11-04T00:59:58.600Z,3.97
2022-11-04T01:05:27.660Z,8.50
2022-11-04T01:10:56.227Z,6.60
2022-11-04T01:16:23.156Z,3.23
2022-11-04T01:21:53.694Z,6.60
2022-11-04T01:27:19.561Z,3.00
2022-11-04T01:32:50.737Z,2.90
2022-11-04T01:38:23.890Z,3.45
2022-11-04T01:43:51.782Z,4.13
2022-11-04T01:49:27.300Z,3.67
2022-11-04T01:55:01.372Z,3.75
2022-11-04T02:00:30.702Z,2.95
2022-11-04T02:05:59.797Z,3.83
2022-11-04T02:11:43.354Z,4.30
2022-11-04T02:17:19.233Z,6.13
2022-11-04T02:23:08.043Z,6.40
2022-11-04T02:28:54.853Z,4.63
2022-11-04T02:34:32.432Z,6.15
2022-11-04T02:40:14.724Z,5.22
2022-11-04T02:45:47.672Z,4.10
2022-11-04T02:51:26.965Z,7.97
2022-11-04T02:57:01.366Z,7.18
2022-11-04T03:02:36.798Z,3.88
2022-11-04T03:08:12.480Z,4.93
2022-11-04T03:13:52.932Z,4.88
2022-11-04T03:19:35.344Z,7.18
2022-11-04T03:25:08.708Z,7.50
2022-11-04T03:30:42.354Z,6.53
2022-11-04T03:36:11.247Z,13.60
2022-11-04T03:41:46.582Z,8.80
2022-11-04T03:47:15.517Z,8.63
2022-11-04T03:52:44.052Z,10.87
2022-11-04T03:58:26.206Z,14.20
2022-11-04T04:04:02.578Z,11.65
2022-11-04T04:09:39.097Z,9.07
2022-11-04T04:15:20.802Z,16.63
2022-11-04T04:20:54.261Z,12.05
2022-11-04T04:26:43.943Z,13.02
2022-11-04T04:32:16.892Z,12.13
2022-11-04T04:37:48.676Z,11.60
2022-11-04T04:43:36.150Z,14.13
2022-11-04T04:49:13.758Z,11.48
2022-11-04T04:54:43.131Z,15.68
2022-11-04T05:00:10.419Z,12.20
2022-11-04T05:05:35.538Z,13.45
2022-11-04T05:11:01.199Z,9.13
2022-11-04T05:16:31.257Z,19.05
2022-11-04T05:21:55.552Z,14.43
2022-11-04T05:27:20.859Z,12.90
2022-11-04T05:32:50.505Z,17.95
2022-11-04T05:38:20.851Z,14.32
2022-11-04T05:49:13.693Z,18.73
2022-11-04T05:54:39.826Z,18.48
2022-11-04T06:00:03.865Z,17.23
2022-11-04T06:05:29.216Z,11.88
2022-11-04T06:10:59.915Z,17.35
2022-11-04T06:16:24.557Z,10.20
2022-11-04T06:21:51.299Z,12.73
2022-11-04T06:27:24.585Z,14.95
2022-11-04T06:32:47.900Z,14.65
2022-11-04T06:38:11.635Z,18.40
2022-11-04T06:43:44.547Z,15.18
2022-11-04T06:49:15.456Z,10.43
2022-11-04T06:54:47.977Z,13.80
2022-11-04T07:00:19.364Z,13.07
2022-11-04T07:05:48.431Z,13.68
2022-11-04T07:11:18.536Z,9.40
2022-11-04T07:16:53.207Z,15.02
2022-11-04T07:22:25.263Z,9.05
2022-11-04T07:27:58.014Z,10.48
2022-11-04T07:33:32.866Z,10.35
2022-11-04T07:39:02.202Z,16.73
2022-11-04T07:44:31.463Z,19.27
2022-11-04T07:50:05.344Z,14.90
2022-11-04T07:55:49.411Z,12.73
2022-11-04T08:01:24.853Z,20.85
2022-11-04T08:06:53.439Z,12.93
2022-11-04T08:12:17.057Z,17.23
2022-11-04T08:17:46.748Z,13.50
2022-11-04T08:23:17.901Z,27.35
2022-11-04T08:28:45.136Z,12.80
2022-11-04T08:34:19.545Z,18.60
2022-11-04T08:39:56.271Z,15.25
2022-11-04T08:45:21.196Z,16.25
2022-11-04T08:50:51.151Z,17.30
2022-11-04T08:56:19.687Z,16.52
2022-11-04T09:01:45.004Z,18.48
2022-11-04T09:07:09.703Z,19.05
2022-11-04T09:12:36.485Z,16.52
2022-11-04T09:18:06.145Z,21.00
2022-11-04T09:23:33.744Z,10.57
2022-11-04T09:29:04.226Z,10.07
2022-11-04T09:34:33.165Z,12.75
2022-11-04T09:40:03.368Z,10.77
2022-11-04T09:45:36.310Z,14.10
2022-11-04T09:51:04.105Z,12.75
2022-11-04T09:56:33.807Z,11.50
2022-11-04T10:02:26.875Z,8.40
2022-11-04T10:08:28.002Z,14.23
2022-11-04T10:14:14.191Z,17.55
2022-11-04T10:20:00.620Z,19.00
2022-11-04T10:25:35.712Z,16.33
2022-11-04T10:31:07.735Z,11.80
2022-11-04T10:36:39.561Z,13.55
2022-11-04T10:42:12.626Z,17.45
2022-11-04T10:47:48.687Z,15.05
2022-11-04T10:53:22.011Z,6.28
2022-11-04T10:58:52.156Z,11.13
2022-11-04T11:04:26.939Z,12.07
2022-11-04T11:10:00.880Z,9.02
2022-11-04T11:15:37.126Z,12.25
2022-11-04T11:21:13.922Z,8.73
2022-11-04T11:26:49.355Z,6.00
2022-11-04T11:32:35.900Z,9.98
2022-11-04T11:38:10.292Z,9.15
2022-11-04T11:43:45.723Z,7.63
2022-11-04T11:49:30.823Z,9.38
2022-11-04T11:55:11.648Z,9.27
2022-11-04T12:00:58.200Z,7.32
2022-11-04T12:12:54.823Z,11.95
2022-11-04T12:18:53.616Z,8.45
2022-11-04T12:24:32.709Z,18.08
2022-11-04T12:30:11.777Z,22.65
2022-11-04T12:36:04.025Z,7.57
2022-11-04T12:42:14.361Z,9.05
2022-11-04T12:47:38.103Z,24.92
2022-11-04T12:53:29.951Z,9.50
2022-11-04T12:59:35.825Z,8.23
2022-11-04T13:05:09.472Z,5.70
2022-11-04T13:10:47.549Z,14.73
2022-11-04T13:16:20.127Z,11.32
2022-11-04T13:21:50.323Z,14.27
2022-11-04T13:27:26.863Z,8.88
2022-11-04T13:33:09.332Z,11.15
2022-11-04T13:38:46.439Z,14.63
2022-11-04T13:44:28.557Z,16.73
2022-11-04T13:50:02.819Z,14.00
2022-11-04T13:55:31.487Z,11.00
2022-11-04T14:01:12.505Z,12.13
2022-11-04T14:06:52.399Z,31.85
2022-11-04T14:18:07.840Z,31.92
2022-11-04T14:23:40.273Z,24.25
2022-11-04T14:34:36.566Z,15.35
2022-11-04T14:40:02.718Z,25.73
2022-11-04T14:45:29.833Z,16.77
2022-11-04T14:50:56.642Z,12.93
2022-11-04T14:56:32.971Z,8.68
2022-11-04T15:02:02.647Z,9.32
2022-11-04T15:07:34.715Z,10.68
2022-11-04T15:13:03.553Z,11.85
2022-11-04T15:18:34.783Z,12.73
2022-11-04T15:24:16.396Z,12.45
2022-11-04T15:29:55.597Z,16.25
2022-11-04T15:35:19.822Z,13.38
2022-11-04T15:40:49.631Z,24.98
2022-11-04T15:46:22.408Z,16.13
2022-11-04T15:51:50.416Z,20.60
2022-11-04T15:57:18.529Z,19.23
2022-11-04T16:02:53.672Z,13.40
2022-11-04T16:08:26.936Z,21.95
2022-11-04T16:14:16.562Z,13.80
2022-11-04T16:19:39.628Z,8.45
2022-11-04T16:25:08.160Z,8.38
2022-11-04T16:30:33.431Z,13.30
2022-11-04T16:36:02.171Z,18.33
2022-11-04T16:41:29.147Z,22.90
2022-11-04T16:47:02.113Z,31.00
2022-11-04T16:52:27.779Z,25.52
2022-11-04T16:58:01.962Z,21.55
2022-11-04T17:03:30.920Z,19.33
2022-11-04T17:08:55.763Z,20.65
2022-11-04T17:14:25.968Z,23.48
2022-11-04T17:20:02.112Z,22.23
2022-11-04T17:25:32.332Z,26.48
2022-11-04T17:31:03.124Z,21.88
2022-11-04T17:36:35.263Z,20.00
2022-11-04T17:42:18.381Z,20.13
2022-11-04T17:47:45.274Z,21.52
2022-11-04T18:28:26.950Z,14.70
2022-11-04T18:33:58.017Z,13.60
2022-11-04T18:39:23.524Z,12.77
2022-11-04T18:44:50.049Z,17.55
2022-11-04T18:50:19.571Z,12.68
2022-11-04T18:55:49.052Z,19.20
2022-11-04T19:01:19.394Z,13.75
2022-11-04T19:06:48.827Z,14.18
2022-11-04T19:12:34.697Z,12.00
2022-11-04T19:17:59.585Z,13.07
2022-11-04T19:23:24.751Z,23.00
2022-11-04T19:28:55.124Z,16.67
2022-11-04T19:34:24.486Z,18.02
2022-11-04T19:39:48.267Z,18.15
2022-11-04T19:45:18.782Z,19.55
2022-11-04T19:50:49.720Z,24.60
2022-11-04T19:56:21.922Z,19.63
2022-11-04T20:01:52.371Z,19.02
2022-11-04T20:07:23.039Z,36.47
2022-11-04T20:13:04.185Z,33.05
2022-11-04T20:18:28.352Z,25.15
2022-11-04T20:23:56.276Z,24.20
2022-11-04T20:29:33.827Z,24.75
2022-11-04T20:35:02.720Z,27.67
2022-11-04T20:40:27.910Z,29.80
2022-11-04T20:45:53.782Z,24.95
2022-11-04T20:51:22.273Z,26.10
2022-11-04T20:56:48.065Z,32.80
2022-11-04T21:02:17.890Z,33.40
2022-11-04T21:07:47.496Z,36.60
2022-11-04T21:13:16.862Z,35.88
2022-11-04T21:18:45.398Z,35.38
2022-11-04T21:24:16.568Z,29.40
2022-11-04T21:29:44.005Z,24.88
2022-11-04T21:35:08.367Z,29.38
2022-11-04T21:40:37.353Z,30.63
2022-11-04T21:46:07.513Z,33.63
2022-11-04T21:51:33.415Z,32.05
2022-11-04T21:57:02.612Z,30.02
2022-11-04T22:02:38.716Z,34.10
2022-11-04T22:08:18.001Z,28.27
2022-11-04T22:13:47.509Z,38.22
2022-11-04T22:19:14.483Z,37.03
2022-11-04T22:24:43.514Z,36.53
2022-11-04T22:30:13.207Z,40.40
2022-11-04T22:35:45.980Z,30.23
2022-11-04T22:41:18.474Z,32.97
2022-11-04T22:46:48.551Z,37.47
2022-11-04T22:52:19.169Z,42.80
2022-11-04T22:57:42.831Z,40.40
2022-11-04T23:03:11.944Z,32.70
2022-11-04T23:08:38.768Z,34.13
2022-11-04T23:14:21.347Z,32.60
2022-11-04T23:19:51.671Z,32.05
2022-11-04T23:25:22.088Z,39.90
2022-11-04T23:30:51.961Z,26.23
2022-11-04T23:36:36.782Z,33.80
2022-11-04T23:42:18.837Z,30.70
2022-11-04T23:48:03.291Z,35.75
2022-11-04T23:53:47.202Z,32.90
2022-11-04T23:59:36.523Z,39.85
